Аэропорт: Магнитогорск. Магнитогорск

ICAO: USCM

METAR:
2018/05/20 19:30
USCM 201930Z 20005MPS 9999 SCT040CB 16/08 Q1015 R18/090060 TEMPO 27015MPS RMK QFE724
METAR:
Информация по данной станции не доступна